createdAt,value
2018-12-08T00:02:23.703Z,19.13
2018-12-08T00:04:51.444Z,19.16
2018-12-08T00:07:19.293Z,19.13
2018-12-08T00:09:47.184Z,19.09
2018-12-08T00:12:14.956Z,19.07
2018-12-08T00:14:42.788Z,19.07
2018-12-08T00:17:10.530Z,19.08
2018-12-08T00:19:38.355Z,19.09
2018-12-08T00:22:06.148Z,19.15
2018-12-08T00:24:33.858Z,19.12
2018-12-08T00:27:01.735Z,19.11
2018-12-08T00:29:29.601Z,19.11
2018-12-08T00:31:57.355Z,19.11
2018-12-08T00:34:25.170Z,19.12
2018-12-08T00:36:52.951Z,19.10
2018-12-08T00:39:20.811Z,19.08
2018-12-08T00:41:48.502Z,19.08
2018-12-08T00:44:16.280Z,19.05
2018-12-08T00:46:44.063Z,19.02
2018-12-08T00:49:11.976Z,19.03
2018-12-08T00:51:39.840Z,19.05
2018-12-08T00:54:08.166Z,19.06
2018-12-08T00:56:36.384Z,19.07
2018-12-08T00:59:04.227Z,19.12
2018-12-08T01:01:31.990Z,19.06
2018-12-08T01:03:59.759Z,19.08
2018-12-08T01:06:27.622Z,19.07
2018-12-08T01:08:55.479Z,19.06
2018-12-08T01:11:23.227Z,19.05
2018-12-08T01:13:50.951Z,19.06
2018-12-08T01:16:18.759Z,19.06
2018-12-08T01:18:46.554Z,19.09
2018-12-08T01:21:14.388Z,19.07
2018-12-08T01:23:42.145Z,19.13
2018-12-08T01:26:09.864Z,19.15
2018-12-08T01:28:37.684Z,19.11
2018-12-08T01:31:05.445Z,19.11
2018-12-08T01:33:34.207Z,19.09
2018-12-08T01:36:01.927Z,19.15
2018-12-08T01:38:29.654Z,19.06
2018-12-08T01:40:57.431Z,19.04
2018-12-08T01:43:25.262Z,17.56
2018-12-08T01:45:53.137Z,19.07
2018-12-08T01:48:20.964Z,19.07
2018-12-08T01:50:48.725Z,19.11
2018-12-08T01:53:16.500Z,19.13
2018-12-08T01:55:44.428Z,19.08
2018-12-08T01:58:12.285Z,19.13
2018-12-08T02:00:40.185Z,19.09
2018-12-08T02:03:08.048Z,19.05
2018-12-08T02:05:36.026Z,19.08
2018-12-08T02:08:03.896Z,19.11
2018-12-08T02:10:31.739Z,19.07
2018-12-08T02:12:59.681Z,19.11
2018-12-08T02:15:27.495Z,19.08
2018-12-08T02:17:55.290Z,19.06
2018-12-08T02:20:23.116Z,19.05
2018-12-08T02:22:50.961Z,19.04
2018-12-08T02:25:18.756Z,19.11
2018-12-08T02:27:46.669Z,19.09
2018-12-08T02:30:14.564Z,19.06
2018-12-08T02:32:42.437Z,19.10
2018-12-08T02:35:10.397Z,19.13
2018-12-08T02:37:38.296Z,18.91
2018-12-08T02:40:06.967Z,19.05
2018-12-08T02:42:34.778Z,19.07
2018-12-08T02:45:02.608Z,19.07
2018-12-08T02:47:30.323Z,19.07
2018-12-08T02:49:58.120Z,19.10
2018-12-08T02:52:26.098Z,19.10
2018-12-08T02:54:54.061Z,19.08
2018-12-08T02:57:21.806Z,19.08
2018-12-08T02:59:49.594Z,19.08
2018-12-08T03:02:17.458Z,19.09
2018-12-08T03:04:45.327Z,19.11
2018-12-08T03:07:13.212Z,19.11
2018-12-08T03:09:41.072Z,19.07
2018-12-08T03:12:09.924Z,19.07
2018-12-08T03:14:37.781Z,19.09
2018-12-08T03:17:05.531Z,19.11
2018-12-08T03:19:33.297Z,19.10
2018-12-08T03:22:01.051Z,19.06
2018-12-08T03:24:28.885Z,19.05
2018-12-08T03:26:56.694Z,19.07
2018-12-08T03:29:24.489Z,19.04
2018-12-08T03:31:52.293Z,19.02
2018-12-08T03:34:20.018Z,19.02
2018-12-08T03:36:47.937Z,19.11
2018-12-08T03:39:15.779Z,19.04
2018-12-08T03:41:43.629Z,19.06
2018-12-08T03:44:11.485Z,19.10
2018-12-08T03:46:39.229Z,19.10
2018-12-08T03:49:06.993Z,19.08
2018-12-08T03:51:34.688Z,19.03
2018-12-08T03:54:02.547Z,19.06
2018-12-08T03:56:30.435Z,19.02
2018-12-08T03:58:58.275Z,18.99
2018-12-08T04:01:26.056Z,19.01
2018-12-08T04:03:53.829Z,19.02
2018-12-08T04:06:21.651Z,19.06
2018-12-08T04:08:49.507Z,19.01
2018-12-08T04:11:17.377Z,18.99
2018-12-08T04:13:45.208Z,19.06
2018-12-08T04:16:13.114Z,19.00
2018-12-08T04:18:40.980Z,19.04
2018-12-08T04:21:08.727Z,19.02
2018-12-08T04:23:36.545Z,18.99
2018-12-08T04:26:04.412Z,19.01
2018-12-08T04:28:32.267Z,19.00
2018-12-08T04:30:59.942Z,18.96
2018-12-08T04:33:27.820Z,18.98
2018-12-08T04:35:55.570Z,19.01
2018-12-08T04:38:23.454Z,19.00
2018-12-08T04:40:51.207Z,19.03
2018-12-08T04:43:19.019Z,18.97
2018-12-08T04:45:46.950Z,19.01
2018-12-08T04:48:14.808Z,18.98
2018-12-08T04:50:42.605Z,18.99
2018-12-08T04:53:10.416Z,18.97
2018-12-08T04:55:38.237Z,18.99
2018-12-08T04:58:06.082Z,19.01
2018-12-08T05:00:33.894Z,19.02
2018-12-08T05:03:01.708Z,18.96
2018-12-08T05:05:29.468Z,19.00
2018-12-08T05:07:57.252Z,19.01
2018-12-08T05:10:25.009Z,18.98
2018-12-08T05:12:52.751Z,18.98
2018-12-08T05:15:20.531Z,18.95
2018-12-08T05:17:49.340Z,18.97
2018-12-08T05:20:17.131Z,18.98
2018-12-08T05:22:44.997Z,18.96
2018-12-08T05:25:12.932Z,18.95
2018-12-08T05:27:40.776Z,18.98
2018-12-08T05:30:08.670Z,18.99
2018-12-08T05:32:36.533Z,18.96
2018-12-08T05:35:04.348Z,18.97
2018-12-08T05:37:32.127Z,18.92
2018-12-08T05:39:59.927Z,18.96
2018-12-08T05:42:27.667Z,18.92
2018-12-08T05:44:55.414Z,18.95
2018-12-08T05:47:23.165Z,18.96
2018-12-08T05:49:50.865Z,18.97
2018-12-08T05:52:18.598Z,18.83
2018-12-08T05:54:46.361Z,18.99
2018-12-08T05:57:14.083Z,18.97
2018-12-08T05:59:41.908Z,18.96
2018-12-08T06:02:09.793Z,18.96
2018-12-08T06:04:37.534Z,18.94
2018-12-08T06:07:05.484Z,18.98
2018-12-08T06:09:33.289Z,18.99
2018-12-08T06:12:01.156Z,18.99
2018-12-08T06:14:29.132Z,19.00
2018-12-08T06:16:56.951Z,18.99
2018-12-08T06:19:24.780Z,18.96
2018-12-08T06:21:52.533Z,18.92
2018-12-08T06:24:20.227Z,18.96
2018-12-08T06:26:53.249Z,18.97
2018-12-08T06:29:21.049Z,18.93
2018-12-08T06:31:48.881Z,18.92
2018-12-08T06:34:16.782Z,18.91
2018-12-08T06:36:44.499Z,18.92
2018-12-08T06:39:12.314Z,18.99
2018-12-08T06:41:40.120Z,18.99
2018-12-08T06:44:07.874Z,19.04
2018-12-08T06:46:35.699Z,19.02
2018-12-08T06:49:03.492Z,19.06
2018-12-08T06:51:31.372Z,19.05
2018-12-08T06:53:59.188Z,19.03
2018-12-08T06:56:26.952Z,18.99
2018-12-08T06:58:54.713Z,18.97
2018-12-08T07:01:22.445Z,18.93
2018-12-08T07:03:50.170Z,18.92
2018-12-08T07:06:17.959Z,18.92
2018-12-08T07:08:45.828Z,18.94
2018-12-08T07:11:13.655Z,18.93
2018-12-08T07:13:41.432Z,18.94
2018-12-08T07:16:09.267Z,18.94
2018-12-08T07:18:37.038Z,18.94
2018-12-08T07:21:04.827Z,18.94
2018-12-08T07:23:32.645Z,18.93
2018-12-08T07:26:00.375Z,18.94
2018-12-08T07:28:28.117Z,18.94
2018-12-08T07:30:55.850Z,18.96
2018-12-08T07:33:23.567Z,18.98
2018-12-08T07:35:51.315Z,18.84
2018-12-08T07:38:19.081Z,18.98
2018-12-08T07:40:46.823Z,18.94
2018-12-08T07:43:14.576Z,18.99
2018-12-08T07:45:42.396Z,18.96
2018-12-08T07:48:10.221Z,18.94
2018-12-08T07:50:37.980Z,18.95
2018-12-08T07:53:05.744Z,18.94
2018-12-08T07:55:33.554Z,18.96
2018-12-08T07:58:01.287Z,18.96
2018-12-08T08:00:29.059Z,18.97
2018-12-08T08:02:56.822Z,18.98
2018-12-08T08:05:24.588Z,18.97
2018-12-08T08:07:52.434Z,18.96
2018-12-08T08:10:20.213Z,18.97
2018-12-08T08:12:48.003Z,18.94
2018-12-08T08:15:15.770Z,18.96
2018-12-08T08:17:43.619Z,18.96
2018-12-08T08:20:11.491Z,18.95
2018-12-08T08:22:39.305Z,18.94
2018-12-08T08:25:08.096Z,18.93
2018-12-08T08:27:35.848Z,18.95
2018-12-08T08:30:03.779Z,18.92
2018-12-08T08:32:31.547Z,18.97
2018-12-08T08:34:59.385Z,18.96
2018-12-08T08:37:27.132Z,18.95
2018-12-08T08:39:54.930Z,18.93
2018-12-08T08:42:22.693Z,18.97
2018-12-08T08:44:50.454Z,18.96
2018-12-08T08:47:18.156Z,18.99
2018-12-08T08:49:45.964Z,18.98
2018-12-08T08:52:13.754Z,19.09
2018-12-08T08:54:41.511Z,19.06
2018-12-08T08:57:09.360Z,19.06
2018-12-08T08:59:37.150Z,19.00
2018-12-08T09:02:04.926Z,18.98
2018-12-08T09:04:32.765Z,18.96
2018-12-08T09:07:00.603Z,19.01
2018-12-08T09:09:28.446Z,19.07
2018-12-08T09:11:56.165Z,19.14
2018-12-08T09:14:23.958Z,19.08
2018-12-08T09:16:51.772Z,19.00
2018-12-08T09:19:19.570Z,19.06
2018-12-08T09:21:47.295Z,19.05
2018-12-08T09:24:15.075Z,19.11
2018-12-08T09:26:42.879Z,19.18
2018-12-08T09:29:10.606Z,19.17
2018-12-08T09:31:38.436Z,19.23
2018-12-08T09:34:06.226Z,19.23
2018-12-08T09:36:33.991Z,19.22
2018-12-08T09:39:01.794Z,19.32
2018-12-08T09:41:29.606Z,19.36
2018-12-08T09:43:57.424Z,19.32
2018-12-08T09:46:25.185Z,19.31
2018-12-08T09:48:53.032Z,19.34
2018-12-08T09:51:20.818Z,19.20
2018-12-08T09:53:48.650Z,19.28
2018-12-08T09:56:16.405Z,19.14
2018-12-08T09:58:44.157Z,19.15
2018-12-08T10:01:11.980Z,19.17
2018-12-08T10:03:39.748Z,19.17
2018-12-08T10:06:07.705Z,19.29
2018-12-08T10:08:35.455Z,19.31
2018-12-08T10:11:03.240Z,19.18
2018-12-08T10:13:31.110Z,19.26
2018-12-08T10:15:58.842Z,19.26
2018-12-08T10:18:26.603Z,19.30
2018-12-08T10:20:54.278Z,19.34
2018-12-08T10:23:22.058Z,19.30
2018-12-08T10:25:49.815Z,19.36
2018-12-08T10:28:17.701Z,19.41
2018-12-08T10:30:45.425Z,19.42
2018-12-08T10:33:13.208Z,19.41
2018-12-08T10:35:41.052Z,19.29
2018-12-08T10:38:08.764Z,19.32
2018-12-08T10:40:36.508Z,19.29
2018-12-08T10:43:04.263Z,19.26
2018-12-08T10:45:32.098Z,19.30
2018-12-08T10:47:59.815Z,19.20
2018-12-08T10:50:27.513Z,19.27
2018-12-08T10:52:55.243Z,19.28
2018-12-08T10:55:22.977Z,19.21
2018-12-08T10:57:50.713Z,19.16
2018-12-08T11:00:23.636Z,19.06
2018-12-08T11:02:53.600Z,19.09
2018-12-08T11:05:21.339Z,19.11
2018-12-08T11:07:49.090Z,19.16
2018-12-08T11:10:16.847Z,19.23
2018-12-08T11:12:44.682Z,19.24
2018-12-08T11:15:12.374Z,19.27
2018-12-08T11:17:40.146Z,19.26
2018-12-08T11:20:07.889Z,19.35
2018-12-08T11:22:35.656Z,19.37
2018-12-08T11:25:03.349Z,19.35
2018-12-08T11:27:31.189Z,19.22
2018-12-08T11:29:58.962Z,19.23
2018-12-08T11:32:26.682Z,19.22
2018-12-08T11:34:54.415Z,19.15
2018-12-08T11:37:22.120Z,19.25
2018-12-08T11:39:49.832Z,19.20
2018-12-08T11:42:17.588Z,19.21
2018-12-08T11:44:45.682Z,19.19
2018-12-08T11:47:13.370Z,19.26
2018-12-08T11:49:43.016Z,19.27
2018-12-08T11:52:10.889Z,19.21
2018-12-08T11:54:38.666Z,19.26
2018-12-08T11:57:06.436Z,19.26
2018-12-08T11:59:34.228Z,19.22
2018-12-08T12:02:01.960Z,19.23
2018-12-08T12:04:29.743Z,19.19
2018-12-08T12:06:57.547Z,19.20
2018-12-08T12:09:25.304Z,19.20
2018-12-08T12:11:53.116Z,19.17
2018-12-08T12:14:25.342Z,19.18
2018-12-08T12:16:53.195Z,19.15
2018-12-08T12:19:21.181Z,19.15
2018-12-08T12:21:49.442Z,19.15
2018-12-08T12:24:17.160Z,19.17
2018-12-08T12:26:45.036Z,19.12
2018-12-08T12:29:12.836Z,19.12
2018-12-08T12:31:40.577Z,19.15
2018-12-08T12:34:08.299Z,19.20
2018-12-08T12:36:36.139Z,19.18
2018-12-08T12:39:04.828Z,19.16
2018-12-08T12:41:32.615Z,19.13
2018-12-08T12:44:00.395Z,19.13
2018-12-08T12:46:28.190Z,19.14
2018-12-08T12:48:55.955Z,19.14
2018-12-08T12:51:23.781Z,19.20
2018-12-08T12:53:51.449Z,19.12
2018-12-08T12:56:19.210Z,19.16
2018-12-08T12:58:46.974Z,19.15
2018-12-08T13:01:14.687Z,19.11
2018-12-08T13:03:42.446Z,19.16
2018-12-08T13:06:10.191Z,19.10
2018-12-08T13:08:37.967Z,19.15
2018-12-08T13:11:05.678Z,19.12
2018-12-08T13:13:33.484Z,19.12
2018-12-08T13:16:01.223Z,19.06
2018-12-08T13:18:29.305Z,19.09
2018-12-08T13:20:57.198Z,19.08
2018-12-08T13:23:25.155Z,19.09
2018-12-08T13:25:52.907Z,19.07
2018-12-08T13:28:20.660Z,19.10
2018-12-08T13:30:48.459Z,19.07
2018-12-08T13:33:16.317Z,19.09
2018-12-08T13:35:51.421Z,19.08
2018-12-08T13:38:19.375Z,19.13
2018-12-08T13:40:47.157Z,19.11
2018-12-08T13:43:14.935Z,19.07
2018-12-08T13:45:42.664Z,18.93
2018-12-08T13:48:11.150Z,19.07
2018-12-08T13:50:39.132Z,19.09
2018-12-08T13:53:06.950Z,19.05
2018-12-08T13:55:34.767Z,19.04
2018-12-08T13:58:02.532Z,19.00
2018-12-08T14:00:30.315Z,19.05
2018-12-08T14:02:58.163Z,19.03
2018-12-08T14:05:25.967Z,19.06
2018-12-08T14:07:53.716Z,19.14
2018-12-08T14:10:21.474Z,19.14
2018-12-08T14:12:49.151Z,19.06
2018-12-08T14:15:16.885Z,19.04
2018-12-08T14:17:44.562Z,19.05
2018-12-08T14:20:17.821Z,19.04
2018-12-08T14:22:45.622Z,19.08
2018-12-08T14:25:13.411Z,19.10
2018-12-08T14:27:41.222Z,19.09
2018-12-08T14:30:09.025Z,19.05
2018-12-08T14:32:36.880Z,19.07
2018-12-08T14:35:04.760Z,19.09
2018-12-08T14:37:32.544Z,19.02
2018-12-08T14:40:00.334Z,19.00
2018-12-08T14:42:27.996Z,19.02
2018-12-08T14:44:55.717Z,19.03
2018-12-08T14:47:23.483Z,19.01
2018-12-08T14:49:51.244Z,19.03
2018-12-08T14:52:19.060Z,18.99
2018-12-08T14:54:46.765Z,18.96
2018-12-08T14:57:14.526Z,18.98
2018-12-08T14:59:42.317Z,18.96
2018-12-08T15:02:10.152Z,19.02
2018-12-08T15:04:37.935Z,19.02
2018-12-08T15:07:05.736Z,18.99
2018-12-08T15:09:33.479Z,19.04
2018-12-08T15:12:01.243Z,19.03
2018-12-08T15:14:29.019Z,19.02
2018-12-08T15:16:56.877Z,18.95
2018-12-08T15:19:24.626Z,18.98
2018-12-08T15:21:52.482Z,18.98
2018-12-08T15:24:20.176Z,19.01
2018-12-08T15:26:47.995Z,19.00
2018-12-08T15:29:15.792Z,18.98
2018-12-08T15:31:43.523Z,18.99
2018-12-08T15:34:11.316Z,18.99
2018-12-08T15:36:39.103Z,18.94
2018-12-08T15:39:07.346Z,18.98
2018-12-08T15:41:35.122Z,18.96
2018-12-08T15:44:02.798Z,19.01
2018-12-08T15:46:30.524Z,19.04
2018-12-08T15:48:58.284Z,18.99
2018-12-08T15:51:26.027Z,18.99
2018-12-08T15:53:53.852Z,19.01
2018-12-08T15:56:21.698Z,19.00
2018-12-08T15:58:49.572Z,19.04
2018-12-08T16:01:17.531Z,18.99
2018-12-08T16:03:45.390Z,19.02
2018-12-08T16:06:13.191Z,19.02
2018-12-08T16:08:40.957Z,18.99
2018-12-08T16:11:08.819Z,19.01
2018-12-08T16:13:36.553Z,18.98
2018-12-08T16:16:04.333Z,18.99
2018-12-08T16:18:32.099Z,18.90
2018-12-08T16:21:00.343Z,19.02
2018-12-08T16:23:28.230Z,19.04
2018-12-08T16:25:56.023Z,19.03
2018-12-08T16:28:23.959Z,19.01
2018-12-08T16:30:51.835Z,18.97
2018-12-08T16:33:19.661Z,18.98
2018-12-08T16:35:47.474Z,18.98
2018-12-08T16:38:15.233Z,19.00
2018-12-08T16:40:43.051Z,18.96
2018-12-08T16:43:10.831Z,19.01
2018-12-08T16:45:38.556Z,18.99
2018-12-08T16:48:06.318Z,18.99
2018-12-08T16:50:34.071Z,18.97
2018-12-08T16:53:01.835Z,18.96
2018-12-08T16:55:29.610Z,18.98
2018-12-08T16:57:57.377Z,18.98
2018-12-08T17:00:25.269Z,19.06
2018-12-08T17:02:53.110Z,19.02
2018-12-08T17:05:20.871Z,19.03
2018-12-08T17:07:48.689Z,18.98
2018-12-08T17:10:16.485Z,19.03
2018-12-08T17:12:44.344Z,18.96
2018-12-08T17:15:12.117Z,18.96
2018-12-08T17:17:39.965Z,18.92
2018-12-08T17:20:08.973Z,18.99
2018-12-08T17:22:36.754Z,18.94
2018-12-08T17:25:04.547Z,18.95
2018-12-08T17:27:32.280Z,18.98
2018-12-08T17:30:00.175Z,18.97
2018-12-08T17:32:28.019Z,18.96
2018-12-08T17:34:55.826Z,18.96
2018-12-08T17:37:23.592Z,18.97
2018-12-08T17:39:51.359Z,19.03
2018-12-08T17:42:19.123Z,18.96
2018-12-08T17:44:46.964Z,18.94
2018-12-08T17:47:14.805Z,19.03
2018-12-08T17:49:42.572Z,18.97
2018-12-08T17:52:10.336Z,18.96
2018-12-08T17:54:38.139Z,18.90
2018-12-08T17:57:05.939Z,18.96
2018-12-08T17:59:33.723Z,18.92
2018-12-08T18:02:01.596Z,18.92
2018-12-08T18:04:29.533Z,18.95
2018-12-08T18:06:57.297Z,18.94
2018-12-08T18:09:25.080Z,18.93
2018-12-08T18:11:52.869Z,18.93
2018-12-08T18:14:20.633Z,18.95
2018-12-08T18:16:48.465Z,18.94
2018-12-08T18:19:16.287Z,18.91
2018-12-08T18:21:44.106Z,18.90
2018-12-08T18:24:11.942Z,18.94
2018-12-08T18:26:39.672Z,18.93
2018-12-08T18:29:07.527Z,18.93
2018-12-08T18:31:35.240Z,18.92
2018-12-08T18:34:03.011Z,18.91
2018-12-08T18:36:30.786Z,18.96
2018-12-08T18:38:58.550Z,18.92
2018-12-08T18:41:26.340Z,18.87
2018-12-08T18:43:54.075Z,18.85
2018-12-08T18:46:21.879Z,18.91
2018-12-08T18:48:49.603Z,18.90
2018-12-08T18:51:17.391Z,18.88
2018-12-08T18:53:45.182Z,18.87
2018-12-08T18:56:12.935Z,18.86
2018-12-08T18:58:42.071Z,18.85
2018-12-08T19:01:10.086Z,18.87
2018-12-08T19:03:37.938Z,18.86
2018-12-08T19:06:05.710Z,18.90
2018-12-08T19:08:33.502Z,18.89
2018-12-08T19:11:01.286Z,18.85
2018-12-08T19:13:29.088Z,18.89
2018-12-08T19:15:56.861Z,18.88
2018-12-08T19:18:24.642Z,18.85
2018-12-08T19:20:52.530Z,18.86
2018-12-08T19:23:20.334Z,18.86
2018-12-08T19:25:48.151Z,18.85
2018-12-08T19:28:15.955Z,18.86
2018-12-08T19:30:43.793Z,18.81
2018-12-08T19:33:14.591Z,18.86
2018-12-08T19:35:41.268Z,18.88
2018-12-08T19:38:09.063Z,18.84
2018-12-08T19:40:36.892Z,18.89
2018-12-08T19:43:04.739Z,18.89
2018-12-08T19:45:32.619Z,18.88
2018-12-08T19:48:00.464Z,18.86
2018-12-08T19:50:28.306Z,18.87
2018-12-08T19:52:56.131Z,18.87
2018-12-08T19:55:23.939Z,18.86
2018-12-08T19:57:51.731Z,18.89
2018-12-08T20:00:19.491Z,18.89
2018-12-08T20:02:47.332Z,18.90
2018-12-08T20:05:15.123Z,18.86
2018-12-08T20:07:42.983Z,18.87
2018-12-08T20:10:10.896Z,18.88
2018-12-08T20:12:38.604Z,18.90
2018-12-08T20:15:07.836Z,18.86
2018-12-08T20:17:35.624Z,18.86
2018-12-08T20:20:03.392Z,18.84
2018-12-08T20:22:31.544Z,18.86
2018-12-08T20:24:59.387Z,18.88
2018-12-08T20:27:27.236Z,18.88
2018-12-08T20:29:55.099Z,18.88
2018-12-08T20:32:22.897Z,18.88
2018-12-08T20:34:52.558Z,18.87
2018-12-08T20:37:20.462Z,18.87
2018-12-08T20:39:48.182Z,18.84
2018-12-08T20:42:15.892Z,18.83
2018-12-08T20:44:43.665Z,18.84
2018-12-08T20:47:11.436Z,18.84
2018-12-08T20:49:39.234Z,18.84
2018-12-08T20:52:07.037Z,18.82
2018-12-08T20:54:34.815Z,18.85
2018-12-08T20:57:02.526Z,18.86
2018-12-08T20:59:30.253Z,18.88
2018-12-08T21:01:58.005Z,18.85
2018-12-08T21:04:25.797Z,18.86
2018-12-08T21:06:53.574Z,18.82
2018-12-08T21:09:21.590Z,18.85
2018-12-08T21:11:49.348Z,18.86
2018-12-08T21:14:17.135Z,18.84
2018-12-08T21:16:44.975Z,18.81
2018-12-08T21:19:12.766Z,18.82
2018-12-08T21:21:40.546Z,18.83
2018-12-08T21:24:08.296Z,18.81
2018-12-08T21:26:36.145Z,18.81
2018-12-08T21:29:03.928Z,18.82
2018-12-08T21:31:31.667Z,18.81
2018-12-08T21:33:59.473Z,18.83
2018-12-08T21:36:27.323Z,18.85
2018-12-08T21:38:55.010Z,18.88
2018-12-08T21:41:22.870Z,18.86
2018-12-08T21:43:50.706Z,18.83
2018-12-08T21:46:18.439Z,18.85
2018-12-08T21:48:46.162Z,18.85
2018-12-08T21:51:14.025Z,18.82
2018-12-08T21:53:41.876Z,18.80
2018-12-08T21:56:09.653Z,18.79
2018-12-08T21:58:37.390Z,18.85
2018-12-08T22:01:05.172Z,18.84
2018-12-08T22:03:32.910Z,18.82
2018-12-08T22:06:00.711Z,18.86
2018-12-08T22:08:28.541Z,18.83
2018-12-08T22:10:56.362Z,18.82
2018-12-08T22:13:24.243Z,18.82
2018-12-08T22:15:52.026Z,18.79
2018-12-08T22:18:19.764Z,18.82
2018-12-08T22:20:47.558Z,18.82
2018-12-08T22:23:15.268Z,18.79
2018-12-08T22:25:43.029Z,18.78
2018-12-08T22:28:10.790Z,18.66
2018-12-08T22:30:38.575Z,18.80
2018-12-08T22:33:06.318Z,18.83
2018-12-08T22:35:34.057Z,18.83
2018-12-08T22:38:01.873Z,18.85
2018-12-08T22:40:29.636Z,18.86
2018-12-08T22:42:57.487Z,18.85
2018-12-08T22:45:25.342Z,18.81
2018-12-08T22:47:53.122Z,18.77
2018-12-08T22:50:20.985Z,18.77
2018-12-08T22:52:48.766Z,18.80
2018-12-08T22:55:16.532Z,18.82
2018-12-08T22:57:44.300Z,18.80
2018-12-08T23:00:14.896Z,18.79
2018-12-08T23:02:42.615Z,18.76
2018-12-08T23:05:10.450Z,18.79
2018-12-08T23:07:38.190Z,18.85
2018-12-08T23:10:05.968Z,18.84
2018-12-08T23:12:33.702Z,18.87
2018-12-08T23:15:01.400Z,18.84
2018-12-08T23:17:29.124Z,18.86
2018-12-08T23:19:56.940Z,18.85
2018-12-08T23:22:24.798Z,18.85
2018-12-08T23:24:52.555Z,18.80
2018-12-08T23:27:20.330Z,18.76
2018-12-08T23:29:48.093Z,18.78
2018-12-08T23:32:15.885Z,18.80
2018-12-08T23:34:43.671Z,18.80
2018-12-08T23:37:11.422Z,18.80
2018-12-08T23:39:40.689Z,18.81
2018-12-08T23:42:08.565Z,18.66
2018-12-08T23:44:36.346Z,18.77
2018-12-08T23:47:04.095Z,18.76
2018-12-08T23:49:31.863Z,18.77
2018-12-08T23:51:59.587Z,18.81
2018-12-08T23:54:27.362Z,18.80
2018-12-08T23:56:55.728Z,18.79
2018-12-08T23:59:23.495Z,18.83
